Meteo Giornale » Osservazioni meteo Seichelles » Seychelles Inter-National
ore: 22:00 - Osservazioni Meteo Seychelles Inter-National
Lat. 4° 40' S Lon. 55° 31' E Alt. 3 metri s.l.m.
26 °C
Nuvoloso
Temp. 24 Ore
25 °C
29 °C
Sud-Est
22.2 Km/h
Dew point 24 °C
Umidità 88 %
Visibilità 10 Km
Il sole sorge alle ore 06:17
Il sole tramonta alle ore 18:18
| Data e Ora | Cielo e Fenomeni | T °C | DP °C | Um. % | Pres. hPa | Vis. km | Vento km/h | |
|---|---|---|---|---|---|---|---|---|
| Oggi h: 22:00 | Nuvoloso | 26 | 24 | 88 | 1015 | 10 | SE 22.2 | |
| Oggi h: 21:00 | Nuvoloso | 26 | 24 | 88 | 1015 | 10 | SE 22.2 | |
| Oggi h: 20:00 | Poco Nuvoloso | 27 | 23 | 78 | 1014 | 10 | SE 29.6 | |
| Oggi h: 19:00 | Poco Nuvoloso | 27 | 23 | 78 | 1013 | 10 | SE 29.6 | |
| Oggi h: 18:00 | Poco Nuvoloso | 27 | 23 | 78 | 1012 | 10 | SE 31.5 | |
| Oggi h: 17:00 | Poco Nuvoloso | 27 | 23 | 78 | 1012 | 10 | SE 33.3 | |
| Oggi h: 16:00 | Poco Nuvoloso | 28 | 24 | 78 | 1012 | 10 | SE 31.5 | |
| Oggi h: 15:00 | Poco Nuvoloso | 29 | 24 | 74 | 1012 | 10 | SE 29.6 | |
| Oggi h: 14:00 | Poco Nuvoloso | 29 | 24 | 74 | 1013 | 10 | SE 29.6 | |
| Oggi h: 13:00 | Nuvoloso | 29 | 24 | 74 | 1013 | 10 | SE 27.8 | |
| Oggi h: 12:00 | Poco Nuvoloso | 29 | 23 | 70 | 1014 | 10 | SE 27.8 | |
| Oggi h: 11:00 | Poco Nuvoloso | 29 | 23 | 70 | 1015 | 10 | SE 27.8 | |
| Oggi h: 10:00 | Poco Nuvoloso | 28 | 23 | 74 | 1015 | 10 | SE 29.6 | |
| Oggi h: 09:00 | Poco Nuvoloso | 28 | 23 | 74 | 1015 | 10 | SE 29.6 | |
| Oggi h: 08:00 | Poco Nuvoloso | 27 | 23 | 78 | 1015 | 10 | SE 27.8 | |
| Oggi h: 07:00 | Nuvoloso | 26 | 23 | 83 | 1014 | 10 | SE 24 | |
| Oggi h: 06:00 | Nuvoloso | 26 | 23 | 83 | 1014 | 10 | SE 29.6 | |
| Oggi h: 05:00 | Nuvoloso | 26 | 23 | 83 | 1014 | 10 | SE 31.5 | |
| Oggi h: 04:00 | Poco Nuvoloso | 26 | 23 | 83 | 1014 | 10 | SE 29.6 | |
| Oggi h: 03:00 | Nuvoloso | 26 | 22 | 78 | 1014 | 10 | SE 33.3 | |
| Oggi h: 02:00 | Pioggia | 25 | 23 | 88 | 1015 | 10 | SE 25.9 | |
| Oggi h: 01:00 | Nuvoloso | 25 | 23 | 88 | 1015 | 10 | SE 31.5 | |
| Oggi h: 00:00 | Molto Nuvoloso | 26 | 23 | 83 | 1016 | 10 | SE 33.3 | |
| Ieri h: 23:00 | Molto Nuvoloso | 26 | 23 | 83 | 1016 | 10 | SE 27.8 | |



